Startseite
Über Mich
AHP4
Galerie
Sehschlangen
Tourenbuch
Bookmarks
Elektronik
Bewertung
Geschichten
[Tagesmessung] [Jahreswerte] [Information]

Messwerte vom 14.05.2022

Die letzten Messwerte von 23:58:47 Uhr:
KategorieMesswert
Temperatur [°C]10
Luftdruck [mBar]1006
Sonneneinstrahlung0
Wind [km/h]0 aus Südost
Niederschlag [l/m²]0
rel.Luftfeucht.74%
CO2 [ppm]538

Diagramme
Messwerte vom 14.05.2022
Tagesaggregation
KategorieMinimumMaximumSchnittSumme
Temperatur [°C]92716.2521
Luftdruck [mBar]100210061003.6688
Sonneneinstrahlung247137.2375
Wind [km/h]20
rF [%]33.590.464.23
Niederschlag [l/m²]0
CO2 [ppm]399764552.6
Einordnung alsVegetationstag
Sommertag

Messungen an benachbarten Tagen: Zur Jahresaggregation 2022
Tabelle aller Messwerte
UhrzeitTemperatur [°C]Luftdruck [mBar]SonneWind [km/h]RichtungRegen [l/m²]rF [%]CO2 [ppm]
00:01:48 9 1002 0 0 NW 0 81.9 582
00:04:48 9 1003 0 0 NW 0 82.5 580
00:07:49 9 1003 0 0 NW 0 82.7 579
00:10:48 9 1002 0 0 NW 0 82.8 580
00:13:48 9 1002 0 0 NW 0 82.7 589
00:16:49 9 1003 0 0 SW 0 83 591
00:19:48 9 1003 0 0 SW 0 83.9 594
00:22:47 9 1002 0 0 O 0 83.8 601
00:25:46 9 1003 0 0 S 0 83.7 603
00:28:45 9 1003 0 0 SW 0 84.1 594
00:31:50 9 1002 0 0 SW 0 83.9 601
00:34:47 9 1003 0 0 N 0 85.5 603
00:37:48 9 1003 0 0 O 0 86.1 607
00:40:48 9 1002 0 0 W 0 85.8 609
00:43:47 9 1002 0 0 S 0 85.7 604
00:46:48 9 1003 0 4 O 0 89.2 607
00:49:48 10 1002 0 0 S 0 87 609
00:52:47 10 1002 0 1 SO 0 86.2 610
00:55:48 9 1002 0 4 NO 0 87.6 613
00:58:44 9 1003 0 0 S 0 87.5 624
01:01:47 9 1003 0 0 S 0 86.2 624
01:04:48 9 1002 0 0 S 0 86.5 621
01:07:49 9 1003 0 0 SO 0 86.5 624
01:10:47 9 1002 0 0 O 0 86.2 618
01:13:47 9 1002 0 0 SW 0 86.3 617
01:16:47 9 1003 0 0 SW 0 86.3 631
01:19:46 9 1003 0 0 SW 0 87.1 645
01:22:49 9 1002 0 0 SW 0 86.8 641
01:25:48 9 1002 0 0 SW 0 86.8 635
01:28:48 9 1002 0 0 SW 0 87 633
01:31:50 9 1002 0 0 SO 0 87.2 629
01:34:48 9 1002 0 0 SO 0 87.1 633
01:37:46 9 1002 0 0 SO 0 86.9 641
01:40:47 9 1003 0 0 SO 0 86.8 644
01:43:47 9 1002 0 0 SO 0 86.8 647
01:46:47 9 1002 0 0 SO 0 86.9 647
01:49:48 9 1002 0 0 SO 0 86.6 644
01:52:47 9 1003 0 0 SO 0 86.3 641
01:55:46 9 1002 0 0 SO 0 86.4 644
01:58:49 9 1003 0 0 SO 0 86.5 653
02:01:57 9 1003 0 0 SO 0 86.6 661
02:04:45 9 1003 0 0 SW 0 86.6 661
02:07:47 9 1003 0 0 SW 0 86.7 660
02:10:47 9 1002 0 0 SW 0 86.9 650
02:13:50 9 1003 0 0 SW 0 87 656
02:16:47 9 1003 0 0 S 0 87.2 661
02:19:51 9 1003 0 0 NW 0 87.2 670
02:22:49 9 1003 0 0 NW 0 87.3 670
02:25:48 9 1002 0 0 S 0 87.4 666
02:28:47 9 1003 0 0 S 0 87.5 667
02:31:47 9 1003 0 0 S 0 87.4 671
02:34:45 9 1003 0 0 S 0 87.2 673
02:37:46 9 1003 0 0 S 0 87.4 668
02:40:46 9 1002 0 0 S 0 87.5 670
02:43:46 9 1003 0 0 S 0 88 670
02:46:47 9 1003 0 0 S 0 88.4 674
02:49:48 9 1003 0 0 SO 0 88.3 667
02:52:48 9 1003 0 0 SO 0 88.2 670
02:55:49 9 1003 0 0 SO 0 88.1 677
02:58:49 9 1003 0 0 SO 0 87.9 677
03:01:47 9 1002 0 0 SO 0 87.9 677
03:04:46 10 1003 0 0 SO 0 87.8 671
03:07:47 10 1003 0 0 SO 0 87.6 671
03:10:45 10 1002 0 0 S 0 87.4 673
03:13:47 10 1003 0 0 S 0 87.2 680
03:16:48 10 1002 0 0 S 0 87.2 686
03:19:48 10 1002 0 0 S 0 87.2 685
03:22:49 10 1003 0 0 S 0 87 682
03:25:46 10 1003 0 0 S 0 86.7 683
03:28:47 10 1002 0 0 S 0 86.5 682
03:31:49 10 1003 0 0 S 0 86.5 689
03:34:48 10 1002 0 0 W 0 86.5 685
03:37:46 10 1003 0 0 S 0 86.5 689
03:40:49 10 1003 0 0 S 0 86.4 685
03:43:49 10 1003 0 0 SO 0 86.4 687
03:46:48 10 1003 0 1 SO 0 86.6 687
03:49:49 10 1002 0 0 S 0 86.6 692
03:52:47 10 1002 0 0 SO 0 86.4 688
03:55:47 10 1002 0 0 SO 0 86.2 682
03:58:48 10 1003 0 0 SO 0 85.9 682
04:01:48 10 1003 0 0 W 0 85.9 692
04:04:49 10 1003 0 0 NW 0 86.1 695
04:07:50 10 1002 0 0 SO 0 86 703
04:10:49 10 1003 0 0 NW 0 85.8 700
04:13:47 10 1002 0 0 W 0 85.8 698
04:16:47 10 1003 0 0 W 0 86 697
04:19:47 10 1002 0 0 W 0 85.8 699
04:22:48 10 1002 0 0 W 0 85.8 700
04:25:46 10 1002 0 0 W 0 85.7 703
04:28:48 10 1002 0 0 SO 0 85.7 709
04:31:47 10 1003 0 0 NW 0 85.7 715
04:34:48 10 1003 0 0 NW 0 85.6 702
04:37:47 10 1003 0 0 S 0 85.6 703
04:40:47 10 1002 0 0 SW 0 85.6 704
04:43:47 10 1002 0 0 SO 0 85.6 710
04:46:47 10 1002 0 0 W 0 85.7 705
04:49:49 10 1003 0 0 SO 0 85.9 709
04:52:48 10 1002 0 0 S 0 86.1 705
04:55:47 10 1003 3 0 O 0 86.2 704
04:58:45 10 1002 5 2 S 0 86.3 703
05:01:50 10 1002 7 0 SO 0 86.7 703
05:04:48 10 1002 11 2 SO 0 87 704
05:07:48 10 1002 17 3 SW 0 87 712
05:10:49 10 1002 23 0 S 0 86.8 716
05:13:46 10 1002 31 1 S 0 86.3 715
05:16:49 10 1003 38 0 S 0 86 720
05:19:48 10 1002 45 0 SW 0 85.8 720
05:22:46 10 1002 55 0 W 0 85.6 726
05:25:48 10 1002 66 0 S 0 85.6 727
05:28:50 10 1002 76 0 SW 0 85.9 723
05:31:47 10 1002 85 0 SO 0 86.1 723
05:34:46 10 1002 96 0 S 0 86.1 724
05:37:49 10 1002 107 0 SO 0 86.4 723
05:40:49 10 1003 114 0 N 0 86.5 723
05:43:51 9 1002 122 0 NW 0 86.6 719
05:46:50 9 1002 128 0 SO 0 86.7 723
05:49:50 9 1003 134 0 SW 0 87.2 728
05:52:50 9 1003 139 0 SW 0 87.7 728
05:55:47 9 1002 144 0 N 0 87.9 727
05:58:49 9 1002 149 0 N 0 88.3 723
06:01:50 9 1002 152 0 S 0 88 721
06:04:48 9 1002 155 0 S 0 88.2 721
06:07:48 9 1003 159 0 O 0 88.7 724
06:10:48 9 1002 162 0 S 0 89 730
06:13:47 9 1003 166 0 SW 0 89.1 738
06:16:48 9 1003 169 2 S 0 89.4 732
06:19:49 10 1002 167 3 N 0 89.9 735
06:22:48 10 1002 169 3 SO 0 90.4 735
06:25:47 10 1003 170 2 S 0 89.9 735
06:28:48 10 1002 172 0 SO 0 88.7 732
06:31:50 10 1003 173 0 SW 0 88.5 733
06:34:48 10 1002 175 0 S 0 88.3 738
06:37:45 10 1003 177 2 S 0 88.5 737
06:40:50 10 1003 179 0 S 0 88.8 738
06:43:48 10 1003 181 0 SW 0 88.8 740
06:46:49 11 1003 185 3 SW 0 87.8 752
06:49:49 11 1003 184 3 W 0 87.8 758
06:52:49 11 1003 188 0 NW 0 87.9 764
06:55:49 12 1003 191 1 SW 0 86.3 764
06:58:50 12 1003 189 0 S 0 85.1 713
07:01:49 12 1002 193 5 SW 0 84.5 716
07:04:51 13 1002 191 3 SW 0 82.3 759
07:07:48 13 1003 188 1 S 0 81.6 738
07:10:51 14 1003 190 0 SW 0 80.5 606
07:13:49 14 1002 191 0 SW 0 76.4 599
07:16:46 15 1002 187 1 O 0 75.3 601
07:19:33 13 1002 187 2 W 0 68.3 607
07:22:48 16 1002 187 0 S 0 68.8 630
07:25:49 16 1003 186 6 O 0 67.6 649
07:28:49 16 1003 186 2 SW 0 66.9 667
07:31:49 17 1003 187 0 S 0 66 679
07:34:47 17 1003 187 2 N 0 65 680
07:37:48 17 1003 187 0 S 0 64.5 677
07:40:48 17 1002 188 0 NW 0 64.5 677
07:43:35 16 1003 189 2 W 0 57.5 669
07:46:48 18 1003 188 1 SO 0 61.1 673
07:49:48 17 1003 188 2 SO 0 60.4 674
07:52:48 16 1003 189 2 SO 0 63.4 668
07:55:47 16 1003 190 0 O 0 65 661
07:58:47 15 1003 195 4 W 0 66.3 656
08:01:51 15 1003 202 1 SW 0 68.4 652
08:04:50 15 1003 197 1 SW 0 69.1 644
08:07:50 15 1003 193 2 SW 0 70.3 651
08:10:48 15 1004 192 3 NW 0 69.8 654
08:13:50 15 1003 192 2 N 0 70.8 650
08:16:47 15 1003 193 1 SO 0 70.8 653
08:19:48 15 1003 193 4 W 0 71.1 653
08:22:48 15 1003 193 3 NW 0 71.2 653
08:25:48 15 1004 193 1 SO 0 71.4 648
08:28:47 15 1003 194 3 W 0 71.1 642
08:31:50 15 1003 194 2 SO 0 71.6 633
08:34:48 15 1003 195 4 SW 0 71.8 632
08:37:48 15 1004 196 1 SO 0 72 624
08:40:50 15 1003 197 4 O 0 71.9 629
08:43:50 15 1005 197 0 SO 0 71.8 631
08:46:47 16 1004 198 1 SW 0 71.7 635
08:49:48 16 1004 199 1 SO 0 71.8 626
08:52:49 16 1004 201 3 NW 0 71.7 626
08:55:48 16 1004 205 4 SW 0 71.4 629
08:58:50 16 1004 208 2 SW 0 71.2 624
09:01:48 16 1004 208 1 SW 0 70.7 620
09:04:50 16 1004 204 1 N 0 69.6 615
09:07:48 16 1004 205 2 SW 0 69.4 612
09:10:49 16 1003 207 1 SW 0 69 620
09:13:48 16 1004 205 1 W 0 68.2 620
09:16:49 17 1003 209 1 NW 0 69.8 612
09:19:48 17 1003 209 6 W 0 70.1 613
09:22:50 17 1004 209 1 W 0 68.6 606
09:25:49 17 1003 207 0 W 0 68.3 607
09:28:48 17 1004 208 2 W 0 68 604
09:31:46 17 1004 209 2 O 0 67.4 609
09:34:47 17 1003 212 1 O 0 67.2 611
09:37:47 18 1004 216 2 S 0 65.7 604
09:40:47 18 1004 216 1 S 0 65.8 614
09:43:48 18 1004 212 3 S 0 64.9 609
09:46:48 18 1004 215 2 N 0 64.9 597
09:49:49 18 1004 212 1 NO 0 64.5 594
09:52:49 18 1004 213 3 NW 0 64.5 597
09:55:46 18 1004 211 1 O 0 64.6 600
09:58:47 18 1004 213 4 W 0 65 594
10:01:47 18 1004 216 2 S 0 64.1 594
10:04:52 18 1004 218 1 W 0 62.4 595
10:07:48 18 1004 214 2 SW 0 62 597
10:10:46 18 1003 215 4 W 0 61.7 604
10:13:52 18 1004 219 0 NW 0 62.8 603
10:16:50 19 1004 218 3 SW 0 62.8 586
10:19:49 19 1004 219 0 NW 0 62.9 592
10:22:48 19 1004 219 5 SW 0 62.1 594
10:25:50 19 1004 218 0 NO 0 61.9 590
10:28:48 19 1004 217 3 SW 0 61.7 593
10:31:49 19 1004 216 1 S 0 60.3 589
10:34:51 19 1004 212 0 SO 0 60.8 586
10:37:49 19 1004 216 0 O 0 59.4 586
10:40:48 19 1004 222 6 O 0 59.8 591
10:43:50 19 1004 215 1 SO 0 61.2 586
10:46:49 19 1005 220 0 SW 0 61.5 594
10:49:47 19 1004 213 3 S 0 60.3 589
10:52:47 19 1003 217 8 SW 0 59 588
10:55:49 19 1004 214 20 SW 0 59.9 586
10:58:49 19 1004 218 1 O 0 60.5 582
11:01:49 19 1004 224 4 SO 0 61.4 582
11:04:49 20 1003 218 2 W 0 60.6 573
11:07:47 20 1004 218 1 W 0 60.7 570
11:10:49 20 1004 223 3 SO 0 59.8 577
11:13:47 20 1004 221 6 S 0 57.8 577
11:16:48 21 1004 224 2 NO 0 57.3 577
11:19:47 21 1004 221 5 W 0 57.9 571
11:22:51 21 1003 220 3 S 0 56.7 565
11:25:49 21 1005 221 4 SW 0 57.1 565
11:28:48 21 1004 222 3 SW 0 57.7 564
11:31:49 21 1004 225 2 SW 0 57.4 556
11:34:48 21 1004 225 4 NW 0 58.2 560
11:37:48 21 1005 220 6 S 0 57.2 559
11:40:49 21 1003 220 2 SO 0 55.5 560
11:43:49 21 1004 225 4 W 0 55.5 559
11:46:47 21 1004 215 0 O 0 56.2 561
11:49:48 20 1004 220 3 SW 0 57.3 556
11:52:49 21 1003 220 4 NW 0 57.4 551
11:55:51 20 1005 225 2 SO 0 57.4 542
11:58:47 20 1004 221 4 SW 0 56.9 542
12:01:47 21 1003 219 5 W 0 56.7 544
12:04:50 20 1004 221 1 S 0 56.2 548
12:07:49 21 1004 224 1 NO 0 57.2 548
12:10:49 22 1003 222 1 W 0 55.5 547
12:13:47 23 1004 225 4 W 0 54.3 536
12:16:48 24 1004 228 2 SO 0 52.9 539
12:19:36 21 1003 226 3 NW 0 45.9 545
12:22:47 25 1004 223 3 O 0 47.6 544
12:25:47 24 1004 223 7 W 0 45.6 544
12:28:48 24 1004 224 2 S 0 46.1 539
12:31:49 24 1004 227 5 SO 0 46.4 533
12:34:47 23 1003 219 2 W 0 45.6 536
12:37:49 22 1003 220 6 SO 0 48.8 536
12:40:50 23 1004 223 1 SW 0 49.3 536
12:43:51 24 1004 226 6 NW 0 48.5 528
12:46:48 24 1004 223 3 W 0 47.2 529
12:49:48 25 1004 224 6 W 0 45.8 524
12:52:49 25 1004 226 3 SO 0 45.6 527
12:55:30 23 1003 226 7 S 0 40 527
12:58:47 25 1004 217 3 N 0 41.1 524
13:01:49 25 1005 221 15 SW 0 41.3 524
13:04:46 25 1005 223 3 O 0 43.3 524
13:07:48 25 1004 228 5 S 0 44.4 524
13:10:48 25 1004 225 8 W 0 43.5 527
13:13:47 24 1004 224 7 W 0 42 524
13:16:48 24 1004 229 9 NW 0 42.4 527
13:19:49 25 1005 230 8 W 0 43.3 530
13:22:49 25 1004 225 4 NW 0 41.7 523
13:25:48 25 1005 227 9 SW 0 41.3 517
13:28:49 25 1004 227 10 S 0 41.4 512
13:31:50 25 1004 230 4 SW 0 41 515
13:34:48 26 1004 230 12 SO 0 40.8 515
13:37:47 26 1004 230 2 SO 0 39.3 515
13:40:48 26 1003 232 8 SO 0 39.4 510
13:43:50 26 1005 229 3 W 0 38.1 503
13:46:50 26 1004 229 6 W 0 38.5 504
13:49:50 25 1004 231 2 SO 0 39.5 502
13:52:46 25 1004 229 2 O 0 40.4 501
13:55:48 24 1004 230 6 NW 0 41.1 497
13:58:48 24 1004 233 8 NO 0 40.6 495
14:01:48 24 1004 228 5 W 0 41.8 494
14:04:48 23 1004 231 10 W 0 41 498
14:07:49 23 1004 227 2 S 0 43.9 500
14:10:51 22 1004 237 12 NW 0 43.9 495
14:13:48 23 1004 238 5 W 0 44.8 483
14:16:47 24 1003 240 4 O 0 45.5 483
14:19:46 24 1004 230 7 S 0 41.1 489
14:22:47 24 1004 241 5 W 0 42.1 489
14:25:47 24 1004 241 9 W 0 42.6 492
14:28:49 24 1004 242 3 SW 0 43 492
14:31:48 25 1004 229 4 W 0 43.5 487
14:34:49 24 1004 225 1 S 0 41.4 486
14:37:47 23 1004 224 4 W 0 40.7 478
14:40:48 22 1004 227 5 W 0 42.6 475
14:43:48 22 1004 242 4 SW 0 45.7 481
14:46:49 22 1004 243 4 NW 0 46.3 486
14:49:51 23 1004 221 5 SW 0 44.3 487
14:52:48 22 1004 227 5 W 0 44.2 487
14:55:50 22 1004 244 3 SO 0 45.7 488
14:58:50 24 1004 244 2 O 0 45.8 486
15:01:48 25 1004 237 8 S 0 42.7 485
15:04:49 25 1005 245 13 SW 0 39 480
15:07:49 25 1003 231 5 W 0 39.1 478
15:10:50 24 1004 234 3 N 0 40 472
15:13:52 24 1004 233 7 NW 0 40.8 469
15:16:46 23 1005 225 6 S 0 40.4 471
15:19:49 23 1004 225 4 NW 0 41.9 474
15:22:48 22 1004 231 0 NW 0 43.4 474
15:25:51 22 1004 234 2 SO 0 43.9 481
15:28:49 23 1004 246 2 SW 0 44.6 475
15:31:47 24 1004 236 8 0 41.7 446
15:34:49 24 1004 225 1 NW 0 41.4 440
15:37:49 23 1004 229 0 SW 0 41.9 437
15:40:50 23 1004 228 1 W 0 42.3 436
15:43:49 23 1004 245 4 NW 0 43.3 439
15:46:48 24 1003 246 8 W 0 42 436
15:49:46 24 1004 247 4 W 0 41.3 433
15:52:49 24 1004 229 3 NW 0 39 436
15:55:47 24 1004 234 1 O 0 38.6 435
15:58:48 24 1004 234 2 W 0 39.9 428
16:01:48 24 1004 224 0 W 0 39.9 428
16:04:48 24 1004 240 4 S 0 39.8 425
16:07:47 24 1004 247 4 W 0 40.1 422
16:10:51 25 1004 247 4 NO 0 39.2 422
16:13:49 25 1004 232 8 W 0 38.5 427
16:16:49 24 1004 247 8 N 0 37.7 428
16:19:48 24 1004 247 3 SW 0 39.7 427
16:22:48 26 1003 247 1 SO 0 38.7 425
16:25:49 26 1004 245 3 NW 0 38 424
16:28:50 27 1003 244 7 NW 0 37 428
16:31:48 26 1004 238 5 W 0 34.6 416
16:34:49 25 1004 231 2 W 0 35.4 416
16:37:50 25 1004 226 2 NW 0 36.9 419
16:40:50 24 1004 225 2 NW 0 38 422
16:43:48 24 1004 229 3 NW 0 38.6 425
16:46:49 23 1003 242 4 W 0 41 416
16:49:50 23 1004 247 2 NW 0 41 408
16:52:48 24 1004 236 1 N 0 40.9 411
16:55:45 24 1004 247 4 W 0 40.3 416
16:58:47 26 1004 244 4 S 0 39.3 413
17:01:51 27 1004 241 1 W 0 35.8 407
17:04:48 27 1005 247 3 SW 0 35.1 404
17:07:48 27 1003 246 2 SW 0 35.1 407
17:10:47 26 1004 225 4 W 0 33.5 406
17:13:48 25 1003 240 3 S 0 35.7 406
17:16:50 25 1004 236 7 NW 0 35.8 404
17:19:50 24 1004 240 9 NW 0 35.9 410
17:22:47 23 1004 237 7 NW 0 35.8 415
17:25:32 24 1004 236 2 NW 0 40 416
17:28:47 23 1004 247 4 S 0 39.3 413
17:31:48 24 1004 245 2 SO 0 40.2 415
17:34:31 23 1004 247 3 W 0 40 410
17:37:48 26 1004 233 4 W 0 34.4 406
17:40:46 24 1004 216 3 N 0 34.2 411
17:43:49 23 1003 247 2 W 0 36.8 424
17:46:48 23 1004 247 10 NW 0 37.7 436
17:49:46 23 1003 246 7 NW 0 37 451
17:52:48 24 1004 235 6 N 0 37 448
17:55:47 22 1004 237 4 O 0 36.4 447
17:58:47 22 1004 246 2 S 0 40.9 440
18:01:48 22 1005 232 5 W 0 41.3 439
18:04:46 22 1004 236 1 W 0 40.1 431
18:07:51 22 1004 230 2 NW 0 41.1 433
18:10:50 22 1004 222 2 SO 0 41.1 433
18:13:47 22 1004 215 2 SW 0 40.6 436
18:16:48 20 1004 213 4 S 0 43.8 434
18:19:48 20 1004 212 6 W 0 44.3 430
18:22:51 20 1004 220 6 NW 0 44.3 422
18:25:49 20 1004 233 4 NO 0 44.3 422
18:28:46 20 1004 234 6 N 0 44.3 424
18:31:47 20 1004 223 4 O 0 44.1 425
18:34:48 20 1004 211 9 W 0 44.4 422
18:37:36 19 1004 216 3 NW 0 40 419
18:40:47 19 1004 218 1 NO 0 46.1 421
18:43:50 19 1004 223 4 NW 0 47.6 410
18:46:48 19 1004 229 2 S 0 48.4 415
18:49:49 19 1004 230 2 NO 0 48.9 410
18:52:50 19 1003 224 3 NW 0 48.9 413
18:55:48 19 1004 221 3 N 0 49 413
18:58:49 19 1005 226 4 NW 0 49.1 415
19:01:46 19 1005 225 5 N 0 48.8 413
19:04:47 19 1004 222 5 N 0 49.7 411
19:07:51 19 1004 220 11 NW 0 49.8 409
19:10:46 18 1004 218 5 0 50.1 413
19:13:47 18 1004 213 2 W 0 50.8 410
19:16:47 18 1004 214 3 NW 0 50.9 410
19:19:48 18 1004 217 2 NW 0 51.7 410
19:22:50 18 1003 216 2 NW 0 52.7 405
19:25:47 18 1005 211 2 N 0 52.6 407
19:28:46 18 1004 208 5 N 0 53.1 404
19:31:48 18 1004 209 4 N 0 53.1 404
19:34:47 18 1005 208 4 W 0 53.5 406
19:37:48 18 1005 206 7 NO 0 53.7 404
19:40:45 18 1005 205 13 S 0 53.4 404
19:43:48 17 1004 204 11 NO 0 53.7 403
19:46:48 17 1004 203 12 NW 0 54.1 407
19:49:46 17 1004 201 6 0 54.3 407
19:52:47 17 1004 199 4 SW 0 54.3 407
19:55:46 17 1005 198 6 O 0 54.6 407
19:58:46 17 1005 195 6 N 0 54.7 404
20:01:49 17 1005 192 6 NW 0 54.9 407
20:04:49 17 1005 189 11 NO 0 55.4 404
20:07:47 17 1004 187 6 O 0 55.5 401
20:10:49 17 1004 184 8 W 0 55.2 406
20:13:48 17 1004 181 7 NW 0 55.4 407
20:16:49 17 1004 179 4 S 0 55.9 410
20:19:51 17 1004 175 6 NW 0 56.4 407
20:22:48 17 1004 172 7 W 0 56.5 407
20:25:47 16 1004 168 6 N 0 56.8 405
20:28:46 16 1005 164 3 N 0 57.1 404
20:31:50 16 1005 159 6 NO 0 57.3 407
20:34:47 16 1004 154 5 N 0 57.2 407
20:37:47 16 1005 148 3 N 0 57.4 404
20:40:49 16 1004 142 5 W 0 57.6 407
20:43:49 16 1004 135 6 NW 0 58.1 404
20:46:47 16 1005 128 5 N 0 58.4 404
20:49:50 16 1004 119 4 NW 0 58.9 405
20:52:46 16 1005 111 6 W 0 59.2 404
20:55:50 15 1005 102 5 NW 0 59.5 404
20:58:50 15 1005 92 3 NW 0 60.1 404
21:01:47 15 1005 82 3 NW 0 60.2 405
21:04:48 15 1005 72 1 W 0 60.1 407
21:07:48 15 1005 62 1 N 0 60.3 404
21:10:49 15 1005 52 2 W 0 61.2 407
21:13:46 15 1004 42 0 N 0 61.2 407
21:16:48 15 1005 33 2 W 0 61.3 404
21:19:46 15 1005 26 4 N 0 61.7 407
21:22:46 15 1005 19 7 0 62.1 399
21:25:49 15 1005 13 7 N 0 62.2 403
21:28:47 15 1005 9 5 NW 0 62.5 407
21:31:45 15 1005 6 4 N 0 62.7 407
21:34:49 14 1006 4 3 NW 0 62.8 403
21:37:46 14 1005 3 4 NO 0 63 406
21:40:45 14 1005 0 4 N 0 63 403
21:43:47 14 1005 0 4 W 0 63.6 407
21:46:46 14 1005 0 1 NW 0 63.9 403
21:49:49 14 1006 0 1 NO 0 63.8 404
21:52:46 14 1005 0 0 W 0 63.8 404
21:55:43 14 1005 0 1 0 63.8 407
21:58:48 14 1005 0 3 SW 0 63.9 406
22:01:47 14 1005 0 0 NW 0 64.1 404
22:04:48 14 1006 0 0 S 0 64.2 407
22:07:47 14 1006 0 0 SO 0 63.9 407
22:10:48 13 1006 0 0 SO 0 64.4 413
22:13:49 13 1006 0 0 SO 0 65.4 425
22:16:48 12 1005 0 0 NW 0 66.7 427
22:19:46 12 1005 0 0 N 0 67.7 430
22:22:46 12 1005 0 1 N 0 67.7 433
22:25:46 12 1005 0 1 0 67.8 445
22:28:49 12 1005 0 0 N 0 67.7 450
22:31:49 12 1005 0 1 NW 0 68.2 451
22:34:45 12 1006 0 1 S 0 68.4 445
22:37:47 12 1006 0 2 N 0 68.6 459
22:40:48 12 1006 0 2 N 0 69.6 471
22:43:45 12 1005 0 0 N 0 69.8 483
22:46:47 12 1005 0 0 N 0 69.8 486
22:49:49 12 1005 0 0 S 0 68.8 492
22:52:47 12 1006 0 0 S 0 68.9 497
22:55:48 12 1006 0 0 O 0 69.5 493
22:58:47 12 1006 0 0 S 0 70.7 489
23:01:51 12 1006 0 1 N 0 72.2 497
23:04:47 12 1005 0 0 N 0 73 501
23:07:47 11 1006 0 0 N 0 72.6 512
23:10:45 11 1005 0 0 N 0 72 521
23:13:49 11 1006 0 0 N 0 73 524
23:16:46 11 1006 0 0 N 0 73 530
23:19:47 11 1006 0 1 N 0 73.5 530
23:22:45 11 1005 0 0 O 0 74.1 528
23:25:48 11 1006 0 0 N 0 74.6 526
23:28:47 11 1006 0 0 N 0 74.6 524
23:31:46 11 1006 0 0 N 0 74.3 524
23:34:46 11 1006 0 0 NO 0 74 527
23:37:45 11 1005 0 0 N 0 74.6 533
23:40:47 11 1006 0 0 NO 0 74.1 533
23:43:45 11 1006 0 0 O 0 74 532
23:46:45 11 1006 0 0 O 0 73.6 521
23:49:48 11 1006 0 0 O 0 73.8 530
23:52:47 11 1006 0 0 SO 0 73.4 533
23:55:48 10 1006 0 0 SO 0 73.4 538
23:58:47 10 1006 0 0 SO 0 74 538

Letzte Änderung : 22-Jul-2022
Copyright Jens Köhler, Wolfsburg, Obere Dorfstraße 10d